createdAt,value
2017-08-26T00:02:32.488Z,6.73
2017-08-26T00:05:42.709Z,6.50
2017-08-26T00:08:52.561Z,8.32
2017-08-26T00:12:02.309Z,6.35
2017-08-26T00:15:12.674Z,7.07
2017-08-26T00:18:23.154Z,6.25
2017-08-26T00:21:33.708Z,6.80
2017-08-26T00:24:43.720Z,5.87
2017-08-26T00:27:54.432Z,6.10
2017-08-26T00:31:04.925Z,6.40
2017-08-26T00:34:15.263Z,6.10
2017-08-26T00:37:25.297Z,6.60
2017-08-26T00:40:35.889Z,6.30
2017-08-26T00:43:46.507Z,6.95
2017-08-26T00:46:57.028Z,7.18
2017-08-26T00:50:07.171Z,6.47
2017-08-26T00:53:17.543Z,6.73
2017-08-26T00:56:28.271Z,7.55
2017-08-26T00:59:38.787Z,7.93
2017-08-26T01:02:48.735Z,7.97
2017-08-26T01:05:58.533Z,6.30
2017-08-26T01:09:08.240Z,6.37
2017-08-26T01:12:18.744Z,6.68
2017-08-26T01:15:29.384Z,7.43
2017-08-26T01:18:39.200Z,5.50
2017-08-26T01:21:49.791Z,6.60
2017-08-26T01:25:00.057Z,6.60
2017-08-26T01:28:10.500Z,6.13
2017-08-26T01:31:20.997Z,7.40
2017-08-26T01:34:30.829Z,6.65
2017-08-26T01:37:40.904Z,7.00
2017-08-26T01:40:51.160Z,7.32
2017-08-26T01:44:01.469Z,6.47
2017-08-26T01:47:11.585Z,7.43
2017-08-26T01:50:22.039Z,8.70
2017-08-26T01:53:32.417Z,7.10
2017-08-26T01:56:42.472Z,6.30
2017-08-26T01:59:52.650Z,6.80
2017-08-26T02:03:03.088Z,5.80
2017-08-26T02:06:12.820Z,5.87
2017-08-26T02:09:23.106Z,6.10
2017-08-26T02:12:33.378Z,6.77
2017-08-26T02:15:43.524Z,6.47
2017-08-26T02:18:53.889Z,5.30
2017-08-26T02:22:03.839Z,5.87
2017-08-26T02:25:13.903Z,6.60
2017-08-26T02:28:24.167Z,5.40
2017-08-26T02:31:35.440Z,7.07
2017-08-26T02:34:45.209Z,5.97
2017-08-26T02:37:55.543Z,5.75
2017-08-26T02:41:05.929Z,6.50
2017-08-26T02:44:16.010Z,7.43
2017-08-26T02:47:26.031Z,6.57
2017-08-26T02:50:36.505Z,5.00
2017-08-26T02:53:47.698Z,6.00
2017-08-26T02:56:57.764Z,6.43
2017-08-26T03:00:08.102Z,5.77
2017-08-26T03:03:18.740Z,6.50
2017-08-26T03:06:29.006Z,6.82
2017-08-26T03:09:39.601Z,6.07
2017-08-26T03:12:49.432Z,4.47
2017-08-26T03:15:59.719Z,5.80
2017-08-26T03:19:10.648Z,5.87
2017-08-26T03:22:21.370Z,4.53
2017-08-26T03:25:31.467Z,5.17
2017-08-26T03:28:42.092Z,4.82
2017-08-26T03:31:52.451Z,5.00
2017-08-26T03:35:02.921Z,4.43
2017-08-26T03:38:13.100Z,4.57
2017-08-26T03:41:23.956Z,5.07
2017-08-26T03:44:33.696Z,4.85
2017-08-26T03:47:44.177Z,3.80
2017-08-26T03:50:54.169Z,4.60
2017-08-26T03:54:04.293Z,4.50
2017-08-26T03:57:14.305Z,5.47
2017-08-26T04:00:25.056Z,5.27
2017-08-26T04:03:34.922Z,5.20
2017-08-26T04:06:45.238Z,4.60
2017-08-26T04:09:55.965Z,5.40
2017-08-26T04:13:06.571Z,5.40
2017-08-26T04:16:16.609Z,5.40
2017-08-26T04:19:26.958Z,4.90
2017-08-26T04:22:37.153Z,5.70
2017-08-26T04:25:47.452Z,5.10
2017-08-26T04:28:57.310Z,5.90
2017-08-26T04:32:07.524Z,5.15
2017-08-26T04:35:17.669Z,5.15
2017-08-26T04:38:27.992Z,6.10
2017-08-26T04:41:38.740Z,6.62
2017-08-26T04:44:48.881Z,6.50
2017-08-26T04:47:59.272Z,5.75
2017-08-26T04:51:08.780Z,5.53
2017-08-26T04:54:18.844Z,5.95
2017-08-26T04:57:28.840Z,5.85
2017-08-26T05:00:39.348Z,6.97
2017-08-26T05:03:50.977Z,5.50
2017-08-26T05:07:01.734Z,5.30
2017-08-26T05:10:12.310Z,5.80
2017-08-26T05:13:22.756Z,6.20
2017-08-26T05:16:32.908Z,6.30
2017-08-26T05:19:43.388Z,5.70
2017-08-26T05:22:53.356Z,6.00
2017-08-26T05:26:03.708Z,5.70
2017-08-26T05:29:13.258Z,5.87
2017-08-26T05:32:23.824Z,6.43
2017-08-26T05:35:34.030Z,7.20
2017-08-26T05:38:44.236Z,6.93
2017-08-26T05:41:54.327Z,5.30
2017-08-26T05:45:04.769Z,6.30
2017-08-26T05:48:15.332Z,6.05
2017-08-26T05:51:25.491Z,6.50
2017-08-26T05:54:36.174Z,6.67
2017-08-26T05:57:46.319Z,6.43
2017-08-26T06:00:56.264Z,6.80
2017-08-26T06:04:06.642Z,5.90
2017-08-26T06:07:17.241Z,6.07
2017-08-26T06:10:27.574Z,6.65
2017-08-26T06:13:37.477Z,6.53
2017-08-26T06:16:47.178Z,6.62
2017-08-26T06:19:57.389Z,6.00
2017-08-26T06:23:08.037Z,6.70
2017-08-26T06:26:18.336Z,6.68
2017-08-26T06:29:28.891Z,7.53
2017-08-26T06:32:39.668Z,6.30
2017-08-26T06:35:50.035Z,6.95
2017-08-26T06:39:00.332Z,7.13
2017-08-26T06:42:10.555Z,6.27
2017-08-26T06:45:20.562Z,7.32
2017-08-26T06:48:30.690Z,6.03
2017-08-26T06:51:41.694Z,6.53
2017-08-26T06:54:51.943Z,5.90
2017-08-26T06:58:02.148Z,6.70
2017-08-26T07:01:12.244Z,6.40
2017-08-26T07:04:22.220Z,5.18
2017-08-26T07:07:32.505Z,6.30
2017-08-26T07:10:42.612Z,6.70
2017-08-26T07:13:53.109Z,6.10
2017-08-26T07:17:03.713Z,5.80
2017-08-26T07:20:13.824Z,6.25
2017-08-26T07:23:24.200Z,6.57
2017-08-26T07:26:34.248Z,7.75
2017-08-26T07:29:44.596Z,7.60
2017-08-26T07:32:54.962Z,6.27
2017-08-26T07:36:05.636Z,7.87
2017-08-26T07:39:16.120Z,7.07
2017-08-26T07:42:26.220Z,8.17
2017-08-26T07:45:36.333Z,7.70
2017-08-26T07:48:46.801Z,7.23
2017-08-26T07:51:56.768Z,7.40
2017-08-26T07:55:07.019Z,8.47
2017-08-26T07:58:17.174Z,6.43
2017-08-26T08:01:27.872Z,5.18
2017-08-26T08:04:38.308Z,5.10
2017-08-26T08:07:48.359Z,5.80
2017-08-26T08:10:58.580Z,4.60
2017-08-26T08:14:08.846Z,3.93
2017-08-26T08:17:18.809Z,4.53
2017-08-26T08:20:28.695Z,5.40
2017-08-26T08:23:38.867Z,4.00
2017-08-26T08:26:49.205Z,4.80
2017-08-26T08:30:00.392Z,5.30
2017-08-26T08:33:11.122Z,4.95
2017-08-26T08:36:20.827Z,4.50
2017-08-26T08:39:31.807Z,4.50
2017-08-26T08:42:42.065Z,4.57
2017-08-26T08:45:52.298Z,3.70
2017-08-26T08:49:02.142Z,4.82
2017-08-26T08:52:12.630Z,4.57
2017-08-26T08:55:22.696Z,4.60
2017-08-26T08:58:32.828Z,5.43
2017-08-26T09:01:43.229Z,4.30
2017-08-26T09:04:53.954Z,6.03
2017-08-26T09:08:04.214Z,4.70
2017-08-26T09:11:15.024Z,5.85
2017-08-26T09:14:25.210Z,5.10
2017-08-26T09:17:35.502Z,4.70
2017-08-26T09:20:45.818Z,5.25
2017-08-26T09:23:55.796Z,4.95
2017-08-26T09:27:06.443Z,6.60
2017-08-26T09:30:16.439Z,8.47
2017-08-26T09:33:29.829Z,6.10
2017-08-26T09:36:39.780Z,5.30
2017-08-26T09:39:50.183Z,5.97
2017-08-26T09:43:00.325Z,6.37
2017-08-26T09:46:11.240Z,6.00
2017-08-26T09:49:21.583Z,6.40
2017-08-26T09:52:31.705Z,5.28
2017-08-26T09:55:41.965Z,5.83
2017-08-26T09:58:52.199Z,4.90
2017-08-26T10:02:02.485Z,5.90
2017-08-26T10:05:12.796Z,5.40
2017-08-26T10:08:23.252Z,5.47
2017-08-26T10:11:33.269Z,4.80
2017-08-26T10:14:43.536Z,5.27
2017-08-26T10:17:53.635Z,4.90
2017-08-26T10:21:04.004Z,4.57
2017-08-26T10:24:13.862Z,4.25
2017-08-26T10:27:24.175Z,4.50
2017-08-26T10:30:34.186Z,4.00
2017-08-26T10:33:44.524Z,4.30
2017-08-26T10:36:54.986Z,3.70
2017-08-26T10:40:05.356Z,3.70
2017-08-26T10:43:15.632Z,3.87
2017-08-26T10:46:25.115Z,4.00
2017-08-26T10:49:34.975Z,5.47
2017-08-26T10:52:44.715Z,4.60
2017-08-26T10:55:55.199Z,4.00
2017-08-26T10:59:05.448Z,3.40
2017-08-26T11:02:15.821Z,3.60
2017-08-26T11:05:26.507Z,4.10
2017-08-26T11:08:36.645Z,3.72
2017-08-26T11:11:46.570Z,3.92
2017-08-26T11:14:56.918Z,3.28
2017-08-26T11:18:07.878Z,4.30
2017-08-26T11:21:17.772Z,3.80
2017-08-26T11:24:27.646Z,4.15
2017-08-26T11:27:38.076Z,4.87
2017-08-26T11:30:48.516Z,4.53
2017-08-26T11:33:59.040Z,4.57
2017-08-26T11:37:08.813Z,4.43
2017-08-26T11:40:18.846Z,3.90
2017-08-26T11:43:29.479Z,5.10
2017-08-26T11:46:39.522Z,5.43
2017-08-26T11:49:50.171Z,4.65
2017-08-26T11:53:00.654Z,3.87
2017-08-26T11:56:10.829Z,4.05
2017-08-26T11:59:20.358Z,5.23
2017-08-26T12:02:30.523Z,5.12
2017-08-26T12:05:40.249Z,5.90
2017-08-26T12:08:50.693Z,5.50
2017-08-26T12:12:01.316Z,6.55
2017-08-26T12:15:11.909Z,5.32
2017-08-26T12:18:22.446Z,5.60
2017-08-26T12:21:32.925Z,6.00
2017-08-26T12:24:43.212Z,5.00
2017-08-26T12:27:53.537Z,4.93
2017-08-26T12:31:03.337Z,5.73
2017-08-26T12:34:13.585Z,6.57
2017-08-26T12:37:23.848Z,6.32
2017-08-26T12:40:34.141Z,5.47
2017-08-26T12:43:44.841Z,6.07
2017-08-26T12:46:55.130Z,4.30
2017-08-26T12:50:06.004Z,7.00
2017-08-26T12:53:16.321Z,5.93
2017-08-26T12:56:26.633Z,5.37
2017-08-26T12:59:36.479Z,5.60
2017-08-26T13:02:47.087Z,6.30
2017-08-26T13:05:57.131Z,4.73
2017-08-26T13:09:07.269Z,5.32
2017-08-26T13:12:19.679Z,7.63
2017-08-26T13:15:29.738Z,6.07
2017-08-26T13:18:39.990Z,6.62
2017-08-26T13:21:50.121Z,7.53
2017-08-26T13:25:00.246Z,6.10
2017-08-26T13:28:10.485Z,7.07
2017-08-26T13:31:21.441Z,6.70
2017-08-26T13:34:31.325Z,7.78
2017-08-26T13:37:41.211Z,6.20
2017-08-26T13:40:52.341Z,6.80
2017-08-26T13:44:02.869Z,6.53
2017-08-26T13:47:13.251Z,6.60
2017-08-26T13:50:23.967Z,8.07
2017-08-26T13:53:33.875Z,8.27
2017-08-26T13:56:44.314Z,6.97
2017-08-26T13:59:54.141Z,8.13
2017-08-26T14:03:04.354Z,7.18
2017-08-26T14:06:14.696Z,7.55
2017-08-26T14:09:25.105Z,7.68
2017-08-26T14:12:35.644Z,8.80
2017-08-26T14:15:46.165Z,8.88
2017-08-26T14:18:56.499Z,9.52
2017-08-26T14:22:06.936Z,9.03
2017-08-26T14:25:17.559Z,8.13
2017-08-26T14:28:27.809Z,8.40
2017-08-26T14:31:38.205Z,8.23
2017-08-26T14:34:48.612Z,9.23
2017-08-26T14:37:59.015Z,8.65
2017-08-26T14:41:09.790Z,8.40
2017-08-26T14:44:20.875Z,6.67
2017-08-26T14:47:30.514Z,8.00
2017-08-26T14:50:41.416Z,8.95
2017-08-26T14:53:52.112Z,10.13
2017-08-26T14:57:02.164Z,10.10
2017-08-26T15:00:13.511Z,8.38
2017-08-26T15:03:23.186Z,7.70
2017-08-26T15:06:33.568Z,7.82
2017-08-26T15:09:44.160Z,8.00
2017-08-26T15:12:54.553Z,8.85
2017-08-26T15:16:05.157Z,7.43
2017-08-26T15:19:15.511Z,7.97
2017-08-26T15:22:25.843Z,8.85
2017-08-26T15:25:37.132Z,8.57
2017-08-26T15:28:47.593Z,8.95
2017-08-26T15:31:58.047Z,9.23
2017-08-26T15:35:08.353Z,8.40
2017-08-26T15:38:18.946Z,8.70
2017-08-26T15:41:29.053Z,9.10
2017-08-26T15:44:39.853Z,8.48
2017-08-26T15:47:50.348Z,9.20
2017-08-26T15:51:00.585Z,8.77
2017-08-26T15:54:10.527Z,8.70
2017-08-26T15:57:21.040Z,8.03
2017-08-26T16:00:31.302Z,6.90
2017-08-26T16:03:41.929Z,7.50
2017-08-26T16:06:51.934Z,7.90
2017-08-26T16:10:02.296Z,7.37
2017-08-26T16:13:12.875Z,6.00
2017-08-26T16:16:23.167Z,7.00
2017-08-26T16:19:33.581Z,8.32
2017-08-26T16:22:44.014Z,8.30
2017-08-26T16:25:54.556Z,7.30
2017-08-26T16:29:04.653Z,8.55
2017-08-26T16:32:14.912Z,7.62
2017-08-26T16:35:25.095Z,7.47
2017-08-26T16:38:35.054Z,6.40
2017-08-26T16:41:45.482Z,6.80
2017-08-26T16:44:56.028Z,6.27
2017-08-26T16:48:06.066Z,6.45
2017-08-26T16:51:17.100Z,7.37
2017-08-26T16:54:27.696Z,6.00
2017-08-26T16:57:38.405Z,6.63
2017-08-26T17:00:48.581Z,6.18
2017-08-26T17:03:58.991Z,6.40
2017-08-26T17:07:09.297Z,6.83
2017-08-26T17:10:19.515Z,7.20
2017-08-26T17:13:29.732Z,7.07
2017-08-26T17:16:40.325Z,7.30
2017-08-26T17:19:51.134Z,8.02
2017-08-26T17:23:02.159Z,7.47
2017-08-26T17:26:12.525Z,7.50
2017-08-26T17:29:23.666Z,9.00
2017-08-26T17:32:33.569Z,8.10
2017-08-26T17:35:43.924Z,6.80
2017-08-26T17:38:54.357Z,8.18
2017-08-26T17:42:04.817Z,8.30
2017-08-26T17:45:15.347Z,7.90
2017-08-26T17:48:25.242Z,8.57
2017-08-26T17:51:35.085Z,7.20
2017-08-26T17:54:45.232Z,7.37
2017-08-26T17:57:55.537Z,10.10
2017-08-26T18:01:05.948Z,8.70
2017-08-26T18:04:16.327Z,9.83
2017-08-26T18:07:26.392Z,8.90
2017-08-26T18:10:36.187Z,20.50
2017-08-26T18:13:46.331Z,14.80
2017-08-26T18:16:57.000Z,11.68
2017-08-26T18:20:06.827Z,9.50
2017-08-26T18:23:17.638Z,10.07
2017-08-26T18:26:28.085Z,8.95
2017-08-26T18:29:39.258Z,9.73
2017-08-26T18:32:49.912Z,8.93
2017-08-26T18:36:00.277Z,10.13
2017-08-26T18:39:10.134Z,10.20
2017-08-26T18:42:20.506Z,9.80
2017-08-26T18:45:30.991Z,8.60
2017-08-26T18:48:40.753Z,10.52
2017-08-26T18:51:50.337Z,9.90
2017-08-26T18:55:01.875Z,8.98
2017-08-26T18:58:11.783Z,10.63
2017-08-26T19:01:22.248Z,11.43
2017-08-26T19:04:32.387Z,9.03
2017-08-26T19:07:43.266Z,10.40
2017-08-26T19:10:54.962Z,9.13
2017-08-26T19:14:05.049Z,11.27
2017-08-26T19:17:15.461Z,10.87
2017-08-26T19:20:25.856Z,10.97
2017-08-26T19:23:35.908Z,10.23
2017-08-26T19:26:46.004Z,11.38
2017-08-26T19:29:55.980Z,9.05
2017-08-26T19:33:06.664Z,10.77
2017-08-26T19:36:16.777Z,11.50
2017-08-26T19:39:27.205Z,9.17
2017-08-26T19:42:37.364Z,13.13
2017-08-26T19:45:47.261Z,10.68
2017-08-26T19:48:57.664Z,13.38
2017-08-26T19:52:08.083Z,13.57
2017-08-26T19:55:18.232Z,12.10
2017-08-26T19:58:28.415Z,12.83
2017-08-26T20:01:38.953Z,11.97
2017-08-26T20:04:48.862Z,12.07
2017-08-26T20:07:59.365Z,12.40
2017-08-26T20:11:10.891Z,12.52
2017-08-26T20:14:21.207Z,13.33
2017-08-26T20:17:31.539Z,11.40
2017-08-26T20:20:41.844Z,11.40
2017-08-26T20:23:51.754Z,10.60
2017-08-26T20:27:01.961Z,11.05
2017-08-26T20:30:12.507Z,11.97
2017-08-26T20:33:23.068Z,14.30
2017-08-26T20:36:32.790Z,13.50
2017-08-26T20:39:42.909Z,11.77
2017-08-26T20:42:52.545Z,12.63
2017-08-26T20:46:02.294Z,13.10
2017-08-26T20:49:12.538Z,12.32
2017-08-26T20:52:22.779Z,11.18
2017-08-26T20:55:32.936Z,12.60
2017-08-26T20:58:43.479Z,12.07
2017-08-26T21:01:53.458Z,12.88
2017-08-26T21:05:03.476Z,12.18
2017-08-26T21:08:13.910Z,12.50
2017-08-26T21:11:24.287Z,13.03
2017-08-26T21:14:34.580Z,13.10
2017-08-26T21:17:44.940Z,12.90
2017-08-26T21:20:55.461Z,14.23
2017-08-26T21:24:06.137Z,13.60
2017-08-26T21:27:16.209Z,13.53
2017-08-26T21:30:25.613Z,14.50
2017-08-26T21:33:36.122Z,14.67
2017-08-26T21:36:46.657Z,13.02
2017-08-26T21:39:57.413Z,14.63
2017-08-26T21:43:07.405Z,15.30
2017-08-26T21:46:17.884Z,15.57
2017-08-26T21:49:28.377Z,16.17
2017-08-26T21:52:38.033Z,15.98
2017-08-26T21:55:48.861Z,13.68
2017-08-26T21:58:59.103Z,16.45
2017-08-26T22:02:10.103Z,15.25
2017-08-26T22:05:20.700Z,17.23
2017-08-26T22:08:30.743Z,17.23
2017-08-26T22:11:41.180Z,16.43
2017-08-26T22:14:51.737Z,16.92
2017-08-26T22:18:03.266Z,16.90
2017-08-26T22:21:13.440Z,18.87
2017-08-26T22:24:24.471Z,14.77
2017-08-26T22:27:34.581Z,16.87
2017-08-26T22:30:44.144Z,14.60
2017-08-26T22:33:55.652Z,16.90
2017-08-26T22:37:06.112Z,14.87
2017-08-26T22:40:16.496Z,13.75
2017-08-26T22:43:26.353Z,13.50
2017-08-26T22:46:36.804Z,15.23
2017-08-26T22:49:47.130Z,15.53
2017-08-26T22:52:57.091Z,18.17
2017-08-26T22:56:07.580Z,14.30
2017-08-26T22:59:18.188Z,15.25
2017-08-26T23:02:28.308Z,13.15
2017-08-26T23:05:38.549Z,17.00
2017-08-26T23:08:48.874Z,14.60
2017-08-26T23:11:59.944Z,15.63
2017-08-26T23:15:09.892Z,15.30
2017-08-26T23:18:20.220Z,14.25
2017-08-26T23:21:30.741Z,16.60
2017-08-26T23:24:40.635Z,12.33
2017-08-26T23:27:51.506Z,14.97
2017-08-26T23:31:01.410Z,15.10
2017-08-26T23:34:11.718Z,16.20
2017-08-26T23:40:30.315Z,15.03
2017-08-26T23:46:50.388Z,15.18
2017-08-26T23:49:59.969Z,16.17
2017-08-26T23:53:10.282Z,17.92
2017-08-26T23:56:20.340Z,15.60
2017-08-26T23:59:30.821Z,14.80
